Latest Weather Observations for Wudinna Airport

IDS60801

Issued at 2:01 pm CDT Sunday 4 December 2016 (issued every 30 minutes, with the page automatically refreshed every 10 minutes)

About weather observations | Map of weather stations | Latest weather observations for SA | Other Formats
Station Details ID: 018083 Name: WUDINNA AERO Lat: -33.04 Lon: 135.45 Height: 86.4 m
Data from the previous 72 hours. | See also: Recent months at Wudinna Airport
Date/Time
CDT
Temp
°C
App
Temp
°C
Dew
Point
°C
Rel
Hum
%
Delta-T
°C
Wind Press
QNH
hPa
Press
MSL
hPa
Rain since
9am
mm
Dir  Spd
km/h
Gust
km/h
Spd
kts
Gust
kts
04/02:00pm 35.6 28.8 13.1 25 13.7 NW 41 52 22 28 1003.2 1002.9 0.2
04/01:30pm 34.4 28.2 13.8 29 12.7 NW 39 52 21 28 1003.6 1003.3 0.2
04/01:00pm 33.1 25.7 13.2 30 12.0 NW 44 57 24 31 1004.0 1003.7 0.2
04/12:30pm 33.2 25.1 13.3 30 12.1 NNW 48 65 26 35 1004.4 1004.1 0.2
04/12:02pm 32.2 25.1 13.4 32 11.4 NNW 43 61 23 33 1004.7 1004.4 0.2
04/12:00pm 33.2 26.2 14.3 32 11.6 NW 44 59 24 32 1004.7 1004.4 0.2
04/11:30am 31.7 24.8 14.4 35 10.6 NNW 44 63 24 34 1004.8 1004.5 0.2
04/11:02am 31.8 27.2 16.1 38 9.9 NNW 35 54 19 29 1005.3 1005.0 0.0
04/11:00am 31.5 27.5 16.6 40 9.4 NNW 33 50 18 27 1005.3 1005.0 0.0
04/10:34am 28.0 25.0 16.9 51 7.0 N 28 46 15 25 1005.7 1005.4 0.0
04/10:30am 28.0 25.8 17.8 54 6.5 N 26 39 14 21 1005.7 1005.4 0.0
04/10:00am 26.0 24.0 18.2 62 5.0 N 26 35 14 19 1006.4 1006.1 0.0
04/09:30am 24.0 21.7 18.4 71 3.6 N 28 37 15 20 1006.6 1006.3 0.0
04/09:00am 23.7 22.5 18.4 72 3.4 N 22 32 12 17 1007.6 1007.2 0.4
04/08:30am 22.2 22.0 18.6 80 2.3 NNE 17 28 9 15 1006.5 1006.2 0.2
04/08:00am 23.3 19.8 17.5 70 3.6 N 32 44 17 24 1007.6 1007.2 0.0
04/07:30am 24.1 20.8 16.9 64 4.5 N 30 41 16 22 1006.8 1006.5 0.0
04/07:00am 24.9 20.6 15.8 57 5.5 N 33 44 18 24 1006.5 1006.2 0.0
04/06:30am 24.3 19.8 16.3 61 4.9 N 35 44 19 24 1006.6 1006.3 0.0
04/06:04am 24.8 19.0 16.0 58 5.4 N 41 59 22 32 1006.3 1006.0 0.0
04/06:00am 24.6 18.3 16.1 59 5.2 N 44 59 24 32 1006.2 1005.9 0.0
04/05:30am 23.9 16.5 16.2 62 4.7 N 50 69 27 37 1005.2 1004.9 0.0
04/05:00am 27.1 19.9 13.8 44 7.9 N 44 70 24 38 1005.8 1005.5 0.0
04/04:37am 28.6 21.8 10.8 33 10.2 N 37 56 20 30 1005.7 1005.4 0.0
04/04:30am 28.7 21.8 10.4 32 10.4 N 37 54 20 29 1005.6 1005.3 0.0
04/04:09am 29.4 23.5 10.5 31 10.8 N 32 52 17 28 1005.8 1005.5 0.0
04/04:00am 28.5 23.8 9.2 30 10.7 N 24 35 13 19 1005.9 1005.6 0.0
04/03:30am 26.9 23.1 5.8 26 11.0 NE 15 19 8 10 1006.2 1005.9 0.0
04/03:00am 26.3 21.4 5.3 26 10.8 NNE 20 28 11 15 1006.3 1006.0 0.0
04/02:30am 25.5 20.5 3.5 24 10.9 NE 19 26 10 14 1006.2 1005.9 0.0
04/02:00am 24.8 19.7 2.9 24 10.7 NE 19 26 10 14 1006.6 1006.3 0.0
04/01:30am 23.7 20.0 4.6 29 9.5 ENE 13 19 7 10 1006.9 1006.6 0.0
04/01:00am 22.9 20.2 5.8 33 8.7 E 9 17 5 9 1007.5 1007.1 0.0
04/12:30am 22.5 19.9 5.9 34 8.4 E 9 13 5 7 1007.9 1007.5 0.0
04/12:00am 22.7 20.5 6.0 34 8.5 ENE 7 13 4 7 1008.2 1007.8 0.0
 
Date/Time
CDT
Temp
°C
App
Temp
°C
Dew
Point
°C
Rel
Hum
%
Delta-T
°C
Wind Press
QNH
hPa
Press
MSL
hPa
Rain since
9am
mm
Dir  Spd
km/h
Gust
km/h
Spd
kts
Gust
kts
03/11:30pm 23.1 21.0 6.0 33 8.7 ENE 6 13 3 7 1008.6 1008.2 0.0
03/11:00pm 24.1 21.6 6.4 32 9.1 E 9 15 5 8 1008.7 1008.3 0.0
03/10:30pm 24.8 21.5 6.5 31 9.5 E 13 19 7 10 1008.7 1008.3 0.0
03/10:00pm 25.7 22.0 6.3 29 10.1 ESE 15 20 8 11 1008.8 1008.4 0.0
03/09:30pm 27.1 22.7 6.5 27 10.9 ESE 19 30 10 16 1008.7 1008.3 0.0
03/09:00pm 28.7 23.8 2.1 18 13.1 SE 17 26 9 14 1008.5 1008.1 0.0
03/08:30pm 29.9 24.5 1.4 16 14.0 SSE 19 22 10 12 1008.4 1008.0 0.0
03/08:00pm 31.0 24.7 1.4 15 14.6 SSE 24 32 13 17 1008.2 1007.8 0.0
03/07:30pm 31.9 24.8 1.1 14 15.3 SSE 28 37 15 20 1008.2 1007.8 0.0
03/07:00pm 32.4 25.5 2.5 15 15.2 S 28 35 15 19 1008.1 1007.7 0.0
03/06:30pm 33.7 27.4 3.5 15 15.7 S 26 37 14 20 1008.1 1007.7 0.0
03/06:00pm 34.2 28.5 2.9 14 16.2 S 22 37 12 20 1008.0 1007.6 0.0
03/05:30pm 35.9 30.6 2.1 12 17.5 S 19 28 10 15 1008.0 1007.6 0.0
03/05:00pm 35.3 30.7 1.6 12 17.2 SSW 15 22 8 12 1008.3 1007.9 0.0
03/04:30pm 35.1 31.8 2.6 13 16.8 SSW 9 22 5 12 1008.5 1008.1 0.0
03/04:00pm 35.7 30.8 1.9 12 17.3 S 17 26 9 14 1008.9 1008.5 0.0
03/03:30pm 34.5 29.6 2.1 13 16.6 SW 17 30 9 16 1009.5 1009.1 0.0
03/03:00pm 34.9 31.2 2.4 13 16.8 ENE 11 30 6 16 1009.8 1009.4 0.0
03/02:30pm 34.2 29.7 1.9 13 16.4 W 15 32 8 17 1010.1 1009.7 0.0
03/02:00pm 33.5 29.0 2.4 14 15.9 SW 15 26 8 14 1010.2 1009.8 0.0
03/01:30pm 33.0 29.0 2.9 15 15.5 WSW 13 19 7 10 1010.6 1010.2 0.0
03/01:00pm 32.2 28.1 2.3 15 15.1 WSW 13 22 7 12 1011.2 1010.8 0.0
03/12:30pm 31.5 28.6 2.7 16 14.6 WNW 7 17 4 9 1011.5 1011.2 0.0
03/12:00pm 30.7 28.6 6.6 22 13.0 W 7 20 4 11 1011.6 1011.3 0.0
03/11:30am 28.5 25.7 7.1 26 11.5 S 11 17 6 9 1011.7 1011.4 0.0
03/11:00am 26.9 24.3 7.9 30 10.2 ESE 11 17 6 9 1011.9 1011.6 0.0
03/10:30am 25.7 24.2 9.1 35 9.1 E 7 13 4 7 1012.5 1012.2 0.0
03/10:00am 23.3 21.4 9.0 40 7.7 ESE 9 17 5 9 1012.6 1012.3 0.0
03/09:30am 21.0 18.5 9.6 48 6.1 ESE 13 17 7 9 1012.6 1012.3 0.0
03/09:00am 19.6 17.1 9.8 53 5.2 E 13 19 7 10 1012.9 1012.6 0.0
03/08:30am 17.8 15.4 9.9 60 4.2 ESE 13 17 7 9 1013.2 1012.9 0.0
03/08:00am 15.5 13.0 9.6 68 3.1 E 13 17 7 9 1012.6 1012.3 0.0
03/07:30am 13.9 12.1 9.5 75 2.3 E 9 15 5 8 1012.5 1012.2 0.0
03/07:00am 10.8 9.0 7.9 82 1.4 ENE 7 9 4 5 1012.5 1012.2 0.0
03/06:30am 9.3 8.5 6.6 83 1.3 CALM 0 0 0 0 1012.6 1012.3 0.0
03/06:00am 9.8 8.7 7.1 83 1.3 SE 2 7 1 4 1012.5 1012.2 0.0
03/05:30am 10.5 8.9 8.1 85 1.2 SSE 6 7 3 4 1012.3 1012.0 0.0
03/05:00am 11.0 9.3 8.4 84 1.3 SSE 7 9 4 5 1012.3 1012.0 0.0
03/04:30am 11.3 9.7 8.7 84 1.3 SE 7 9 4 5 1012.4 1012.1 0.0
03/04:00am 11.2 9.1 8.4 83 1.4 S 9 11 5 6 1012.3 1012.0 0.0
03/03:30am 11.9 10.3 8.9 82 1.5 SE 7 9 4 5 1012.4 1012.1 0.0
03/03:00am 11.8 10.1 8.5 80 1.6 S 7 9 4 5 1012.5 1012.2 0.0
03/02:30am 12.7 11.2 9.2 79 1.8 ESE 7 9 4 5 1012.5 1012.2 0.0
03/02:00am 13.1 11.2 9.2 77 2.0 ESE 9 13 5 7 1012.8 1012.5 0.0
03/01:30am 13.7 11.9 9.6 76 2.1 SE 9 13 5 7 1013.1 1012.8 0.0
03/01:00am 14.0 11.4 9.4 74 2.4 SE 13 17 7 9 1013.5 1013.2 0.0
03/12:30am 14.4 11.1 9.4 72 2.6 SE 17 22 9 12 1013.8 1013.5 0.0
03/12:00am 14.8 11.4 9.2 69 2.9 SE 17 20 9 11 1014.1 1013.8 0.0
 
Date/Time
CDT
Temp
°C
App
Temp
°C
Dew
Point
°C
Rel
Hum
%
Delta-T
°C
Wind Press
QNH
hPa
Press
MSL
hPa
Rain since
9am
mm
Dir  Spd
km/h
Gust
km/h
Spd
kts
Gust
kts
02/11:30pm 15.3 11.9 9.2 67 3.1 SE 17 20 9 11 1014.2 1013.9 0.0
02/11:00pm 15.9 12.4 8.9 63 3.6 SE 17 24 9 13 1014.1 1013.8 0.0
02/10:30pm 16.7 12.7 8.4 58 4.2 SE 19 30 10 16 1014.1 1013.8 0.0
02/10:00pm 17.4 13.5 7.2 51 5.1 SE 17 26 9 14 1013.9 1013.6 0.0
02/09:30pm 18.4 14.9 7.2 48 5.7 SE 15 22 8 12 1013.6 1013.3 0.0
02/09:00pm 19.5 15.2 6.9 44 6.4 SE 19 28 10 15 1013.5 1013.2 0.0
02/08:30pm 20.9 16.1 7.2 41 7.0 S 22 32 12 17 1013.2 1012.9 0.0
02/08:00pm 21.6 16.4 7.1 39 7.5 SSW 24 30 13 16 1012.8 1012.5 0.0
02/07:30pm 23.2 17.8 6.5 34 8.6 SSW 24 32 13 17 1012.3 1012.0 0.0
02/07:00pm 24.6 18.9 6.8 32 9.3 S 26 35 14 19 1012.0 1011.7 0.0
02/06:30pm 25.8 20.0 6.4 29 10.1 SSW 26 35 14 19 1011.9 1011.6 0.0
02/06:00pm 26.6 21.3 6.6 28 10.5 SSW 24 32 13 17 1011.9 1011.6 0.0
02/05:30pm 28.0 22.4 7.3 27 11.1 SSW 26 33 14 18 1011.9 1011.6 0.0
02/05:00pm 28.9 25.5 5.7 23 12.2 S 13 30 7 16 1011.6 1011.3 0.0
02/04:30pm 28.4 23.7 3.3 20 12.6 WSW 17 26 9 14 1012.0 1011.7 0.0
02/04:00pm 28.8 25.6 5.0 22 12.3 SW 11 24 6 13 1012.0 1011.7 0.0
02/03:30pm 28.3 23.7 5.8 24 11.8 SSW 19 30 10 16 1012.1 1011.8 0.0
02/03:00pm 27.6 23.4 5.8 25 11.4 S 17 28 9 15 1012.1 1011.8 0.0
02/02:30pm 27.8 23.8 6.6 26 11.2 S 17 30 9 16 1012.5 1012.2 0.0
02/02:00pm 26.7 22.3 6.7 28 10.5 SSW 19 28 10 15 1012.8 1012.5 0.0
02/01:30pm 25.8 22.6 6.9 30 10.0 SSE 13 24 7 13 1013.4 1013.1 0.0
02/01:00pm 25.4 21.0 7.5 32 9.5 S 20 30 11 16 1013.6 1013.3 0.0
02/12:30pm 24.4 20.5 7.1 33 9.1 SSE 17 30 9 16 1013.8 1013.5 0.0
02/12:00pm 23.9 19.7 8.3 37 8.3 SSE 20 32 11 17 1013.9 1013.6 0.0
02/11:30am 22.7 19.5 9.8 44 7.0 S 17 26 9 14 1014.0 1013.7 0.0
02/11:00am 21.4 18.1 9.6 47 6.4 SE 17 32 9 17 1014.3 1014.0 0.0
02/10:30am 20.5 16.6 8.8 47 6.2 SE 19 28 10 15 1014.4 1014.1 0.0
02/10:00am 19.3 15.0 9.5 53 5.2 SSE 22 32 12 17 1014.6 1014.3 0.0
02/09:30am 18.4 14.1 9.5 56 4.7 SE 22 32 12 17 1014.5 1014.2 0.0
02/09:00am 18.8 15.3 10.1 57 4.7 SSE 19 28 10 15 1014.4 1014.1 0.0
02/08:30am 16.8 13.1 10.0 64 3.6 SSE 20 30 11 16 1014.3 1014.0 0.0
02/08:00am 15.6 12.2 10.4 71 2.8 SSE 19 24 10 13 1014.0 1013.7 0.0
02/07:30am 13.4 10.2 9.8 79 1.9 SSE 17 20 9 11 1013.9 1013.6 0.0
02/07:00am 11.6 9.6 8.6 82 1.5 S 9 11 5 6 1013.6 1013.3 0.0
02/06:30am 11.1 9.4 8.3 83 1.4 SSE 7 9 4 5 1013.3 1013.0 0.0
02/06:00am 11.2 9.5 8.4 83 1.4 SE 7 11 4 6 1012.9 1012.6 0.0
02/05:30am 11.2 9.4 8.1 81 1.5 ESE 7 9 4 5 1012.8 1012.5 0.0
02/05:00am 11.3 8.8 8.0 80 1.6 SSE 11 15 6 8 1012.4 1012.1 0.0
02/04:30am 12.0 9.9 8.3 78 1.8 SSE 9 13 5 7 1012.1 1011.8 0.0
02/04:00am 11.9 9.8 8.2 78 1.8 SSE 9 11 5 6 1011.8 1011.5 0.0
02/03:30am 12.0 9.9 8.3 78 1.8 SSE 9 13 5 7 1011.6 1011.3 0.0
02/03:00am 12.1 10.1 8.6 79 1.7 S 9 13 5 7 1011.7 1011.4 0.0
02/02:30am 12.6 10.3 8.9 78 1.9 S 11 13 6 7 1011.6 1011.3 0.0
02/02:00am 13.1 10.9 9.2 77 2.0 S 11 13 6 7 1011.7 1011.4 0.0
02/01:30am 13.5 12.1 9.4 76 2.1 S 7 9 4 5 1012.0 1011.7 0.0
02/01:00am 14.0 12.2 9.6 75 2.3 S 9 11 5 6 1011.7 1011.4 0.0
02/12:30am 14.3 12.2 9.9 75 2.3 S 11 13 6 7 1011.4 1011.1 0.0
02/12:00am 15.2 12.9 10.4 73 2.5 S 13 19 7 10 1011.4 1011.1 0.0
 
Date/Time
CDT
Temp
°C
App
Temp
°C
Dew
Point
°C
Rel
Hum
%
Delta-T
°C
Wind Press
QNH
hPa
Press
MSL
hPa
Rain since
9am
mm
Dir  Spd
km/h
Gust
km/h
Spd
kts
Gust
kts
01/11:30pm 15.7 13.2 10.9 73 2.6 S 15 20 8 11 1011.4 1011.1 0.0
01/11:00pm 16.1 12.8 10.8 71 2.8 SSW 19 22 10 12 1011.1 1010.7 0.0
01/10:30pm 16.3 13.6 10.4 68 3.1 SSW 15 19 8 10 1010.8 1010.4 0.0
01/10:00pm 16.6 13.4 10.0 65 3.5 SSW 17 22 9 12 1010.7 1010.3 0.0
01/09:30pm 17.2 13.5 10.3 64 3.7 SSW 20 28 11 15 1010.3 1009.9 0.0
01/09:00pm 17.8 13.7 10.2 61 4.1 S 22 28 12 15 1009.9 1009.5 0.0
01/08:30pm 18.7 13.6 10.5 59 4.4 S 28 35 15 19 1009.6 1009.2 0.0
01/08:00pm 20.3 15.4 9.8 51 5.6 S 26 33 14 18 1008.8 1008.4 0.0
01/07:30pm 21.8 16.1 8.3 42 7.1 SSW 28 35 15 19 1008.2 1007.8 0.0
01/07:00pm 23.2 16.9 5.6 32 8.9 SSW 28 35 15 19 1007.7 1007.3 0.0
01/06:30pm 24.5 18.5 5.3 29 9.8 SSW 26 33 14 18 1007.4 1007.0 0.0
01/06:00pm 25.6 19.1 4.7 26 10.6 SSW 28 35 15 19 1007.5 1007.1 0.0
01/05:30pm 28.1 21.2 4.4 22 12.1 SW 30 37 16 20 1007.5 1007.1 0.0
01/05:00pm 29.7 22.2 3.6 19 13.3 SW 32 43 17 23 1007.4 1007.0 0.0
01/04:30pm 31.5 23.7 1.8 15 14.9 SW 32 43 17 23 1007.3 1006.9 0.0
01/04:00pm 32.6 27.3 1.7 14 15.5 SW 19 30 10 16 1006.9 1006.6 0.0
01/03:30pm 32.5 27.0 1.6 14 15.5 WSW 20 33 11 18 1007.2 1006.8 0.0
01/03:00pm 31.9 25.4 0.1 13 15.5 W 24 39 13 21 1007.4 1007.0 0.0
01/02:30pm 31.5 25.9 -0.2 13 15.3 WSW 19 32 10 17 1007.4 1007.0 0.0

Other Formats:

Comma delimited format used in spreadsheet applications
http://www.bom.gov.au/fwo/IDS60801/IDS60801.95654.axf

JavaScript Object Notation format (JSON) in row-major order
http://www.bom.gov.au/fwo/IDS60801/IDS60801.95654.json